createdAt,value
2019-04-24T00:00:29.567Z,2.67
2019-04-24T00:03:10.288Z,2.80
2019-04-24T00:06:07.863Z,2.73
2019-04-24T00:11:24.814Z,3.13
2019-04-24T00:19:09.937Z,2.67
2019-04-24T00:21:17.147Z,2.50
2019-04-24T00:24:03.675Z,2.70
2019-04-24T00:26:16.024Z,2.90
2019-04-24T00:28:57.336Z,2.57
2019-04-24T00:31:35.615Z,2.53
2019-04-24T00:34:03.617Z,2.73
2019-04-24T00:39:08.068Z,2.47
2019-04-24T00:43:59.925Z,2.70
2019-04-24T00:46:37.806Z,2.67
2019-04-24T00:51:34.303Z,3.07
2019-04-24T00:54:02.164Z,2.60
2019-04-24T00:56:33.814Z,2.80
2019-04-24T00:59:19.663Z,2.70
2019-04-24T01:02:10.269Z,2.90
2019-04-24T01:12:44.577Z,2.40
2019-04-24T01:15:17.378Z,2.47
2019-04-24T01:17:39.645Z,2.70
2019-04-24T01:22:49.971Z,2.70
2019-04-24T01:25:30.061Z,2.60
2019-04-24T01:27:56.344Z,2.70
2019-04-24T01:30:47.197Z,2.80
2019-04-24T01:33:09.029Z,2.80
2019-04-24T01:36:11.773Z,2.43
2019-04-24T01:38:37.576Z,2.67
2019-04-24T01:41:14.760Z,2.63
2019-04-24T01:43:42.250Z,2.70
2019-04-24T01:51:14.965Z,3.03
2019-04-24T01:53:39.000Z,3.00
2019-04-24T01:56:13.737Z,2.50
2019-04-24T01:58:42.090Z,2.80
2019-04-24T02:01:16.575Z,2.40
2019-04-24T02:03:51.463Z,2.53
2019-04-24T02:06:19.449Z,2.43
2019-04-24T02:08:59.505Z,2.50
2019-04-24T02:11:52.946Z,2.60
2019-04-24T02:14:22.028Z,2.77
2019-04-24T02:16:35.633Z,2.30
2019-04-24T02:19:02.282Z,2.63
2019-04-24T02:21:40.810Z,2.80
2019-04-24T02:24:15.314Z,2.60
2019-04-24T02:29:21.147Z,2.50
2019-04-24T02:34:50.978Z,2.57
2019-04-24T02:37:23.986Z,2.50
2019-04-24T02:40:00.495Z,2.80
2019-04-24T02:47:44.796Z,2.80
2019-04-24T03:02:57.806Z,2.57
2019-04-24T03:05:02.089Z,2.57
2019-04-24T03:07:59.147Z,2.50
2019-04-24T03:15:59.368Z,2.70
2019-04-24T03:18:06.820Z,2.63
2019-04-24T03:21:08.635Z,2.60
2019-04-24T03:23:27.763Z,2.70
2019-04-24T03:28:18.086Z,2.70
2019-04-24T03:33:43.305Z,2.67
2019-04-24T03:48:49.461Z,2.80
2019-04-24T03:54:01.372Z,2.73
2019-04-24T03:56:23.803Z,2.47
2019-04-24T04:17:12.473Z,2.50
2019-04-24T04:24:52.894Z,2.47
2019-04-24T04:27:43.358Z,2.27
2019-04-24T04:30:10.276Z,2.63
2019-04-24T04:33:17.358Z,2.47
2019-04-24T04:35:13.638Z,2.60
2019-04-24T04:38:27.522Z,2.60
2019-04-24T04:41:13.255Z,2.97
2019-04-24T04:43:39.682Z,2.57
2019-04-24T04:51:19.544Z,2.63
2019-04-24T04:53:46.875Z,2.70
2019-04-24T04:59:02.195Z,2.53
2019-04-24T05:07:30.465Z,2.37
2019-04-24T05:10:05.875Z,2.80
2019-04-24T05:12:26.892Z,2.67
2019-04-24T05:17:41.313Z,2.60
2019-04-24T05:19:44.006Z,2.50
2019-04-24T05:22:23.854Z,2.63
2019-04-24T05:25:19.485Z,2.67
2019-04-24T05:27:38.641Z,2.40
2019-04-24T05:30:22.735Z,2.70
2019-04-24T05:35:55.195Z,2.80
2019-04-24T05:41:10.020Z,2.60
2019-04-24T05:43:50.463Z,2.70
2019-04-24T05:48:52.610Z,2.50
2019-04-24T05:51:44.188Z,2.53
2019-04-24T05:54:31.759Z,2.63
2019-04-24T05:57:49.182Z,2.37
2019-04-24T06:02:40.977Z,2.53
2019-04-24T06:05:05.873Z,2.40
2019-04-24T06:10:39.803Z,2.73
2019-04-24T06:13:32.974Z,2.70
2019-04-24T06:16:28.168Z,2.60
2019-04-24T06:19:11.875Z,2.77
2019-04-24T06:26:45.704Z,2.70
2019-04-24T06:34:20.026Z,2.70
2019-04-24T06:37:16.722Z,2.50
2019-04-24T06:39:59.711Z,2.60
2019-04-24T06:45:31.231Z,2.77
2019-04-24T06:47:58.569Z,2.80
2019-04-24T06:50:29.067Z,3.00
2019-04-24T06:52:52.656Z,2.87
2019-04-24T06:55:36.228Z,3.27
2019-04-24T06:57:52.293Z,2.80
2019-04-24T07:03:06.551Z,3.13
2019-04-24T07:05:46.139Z,2.87
2019-04-24T07:08:26.564Z,2.80
2019-04-24T07:11:03.477Z,3.00
2019-04-24T07:14:09.847Z,3.33
2019-04-24T07:19:36.094Z,3.00
2019-04-24T07:22:14.008Z,3.00
2019-04-24T07:27:33.602Z,3.10
2019-04-24T07:30:04.189Z,2.83
2019-04-24T07:32:50.596Z,3.20
2019-04-24T07:35:52.576Z,2.97
2019-04-24T07:38:18.393Z,3.10
2019-04-24T07:41:01.402Z,2.90
2019-04-24T07:43:30.339Z,3.13
2019-04-24T07:46:02.096Z,3.30
2019-04-24T07:48:42.915Z,2.80
2019-04-24T07:51:08.932Z,3.20
2019-04-24T07:53:48.699Z,2.93
2019-04-24T07:56:43.249Z,3.10
2019-04-24T07:58:59.443Z,3.30
2019-04-24T08:01:14.475Z,3.23
2019-04-24T08:06:22.889Z,3.23
2019-04-24T08:08:53.966Z,3.20
2019-04-24T08:11:32.861Z,3.40
2019-04-24T08:13:57.214Z,3.13
2019-04-24T08:16:14.794Z,3.17
2019-04-24T08:18:45.380Z,3.10
2019-04-24T08:21:28.106Z,3.07
2019-04-24T08:24:07.642Z,3.10
2019-04-24T08:26:34.907Z,3.60
2019-04-24T08:28:54.175Z,3.37
2019-04-24T08:31:50.303Z,3.00
2019-04-24T08:36:55.111Z,3.30
2019-04-24T08:39:44.128Z,3.60
2019-04-24T08:42:36.709Z,3.30
2019-04-24T08:45:07.770Z,3.63
2019-04-24T08:47:43.932Z,3.20
2019-04-24T08:50:06.738Z,3.13
2019-04-24T08:55:15.201Z,3.10
2019-04-24T08:58:00.459Z,3.40
2019-04-24T09:03:08.090Z,3.40
2019-04-24T09:05:52.229Z,3.67
2019-04-24T09:10:58.390Z,6.93
2019-04-24T09:13:36.201Z,5.47
2019-04-24T09:18:40.515Z,8.43
2019-04-24T09:24:19.061Z,9.73
2019-04-24T09:26:46.210Z,9.67
2019-04-24T09:29:02.551Z,10.47
2019-04-24T09:31:36.163Z,9.90
2019-04-24T09:37:02.643Z,11.40
2019-04-24T09:39:40.112Z,11.20
2019-04-24T09:44:35.692Z,11.83
2019-04-24T09:47:04.620Z,11.70
2019-04-24T09:49:33.825Z,11.13
2019-04-24T09:55:00.013Z,11.37
2019-04-24T09:59:57.095Z,11.33
2019-04-24T10:08:13.743Z,10.50
2019-04-24T10:10:36.922Z,11.57
2019-04-24T10:13:03.015Z,10.67
2019-04-24T10:18:08.968Z,11.67
2019-04-24T10:20:47.611Z,10.67
2019-04-24T10:34:30.531Z,10.57
2019-04-24T10:43:20.089Z,11.50
2019-04-24T10:45:58.260Z,10.90
2019-04-24T10:48:55.461Z,11.30
2019-04-24T10:51:04.191Z,10.63
2019-04-24T10:53:42.629Z,10.23
2019-04-24T10:56:30.880Z,10.70
2019-04-24T10:58:45.534Z,10.20
2019-04-24T11:01:27.011Z,9.77
2019-04-24T11:07:14.855Z,9.80
2019-04-24T11:10:20.780Z,9.60
2019-04-24T11:12:57.154Z,10.03
2019-04-24T11:15:31.414Z,10.70
2019-04-24T11:18:24.447Z,10.30
2019-04-24T11:21:22.940Z,9.83
2019-04-24T11:23:37.466Z,9.50
2019-04-24T11:26:22.212Z,10.17
2019-04-24T11:28:53.954Z,8.50
2019-04-24T11:31:51.615Z,8.67
2019-04-24T11:37:24.027Z,9.60
2019-04-24T11:42:30.678Z,9.03
2019-04-24T11:45:23.299Z,9.13
2019-04-24T11:50:53.383Z,8.40
2019-04-24T11:53:24.389Z,9.23
2019-04-24T11:55:49.509Z,9.03
2019-04-24T11:58:37.475Z,9.00
2019-04-24T12:01:10.380Z,8.30
2019-04-24T12:03:58.001Z,8.23
2019-04-24T12:06:34.142Z,8.17
2019-04-24T12:09:01.539Z,7.83
2019-04-24T12:11:34.721Z,8.33
2019-04-24T12:14:05.523Z,8.30
2019-04-24T12:16:49.887Z,7.77
2019-04-24T12:19:36.352Z,7.43
2019-04-24T12:22:08.125Z,8.13
2019-04-24T12:24:47.046Z,7.47
2019-04-24T12:27:05.009Z,7.77
2019-04-24T12:29:46.387Z,7.77
2019-04-24T12:35:44.080Z,7.37
2019-04-24T12:43:40.177Z,7.20
2019-04-24T12:48:32.814Z,7.40
2019-04-24T12:50:59.125Z,7.20
2019-04-24T12:53:44.351Z,6.47
2019-04-24T12:56:53.263Z,6.77
2019-04-24T13:02:11.314Z,7.47
2019-04-24T13:07:26.482Z,7.00
2019-04-24T13:09:59.299Z,6.83
2019-04-24T13:18:08.674Z,6.23
2019-04-24T13:20:11.096Z,6.47
2019-04-24T13:22:44.940Z,6.30
2019-04-24T13:26:11.071Z,5.90
2019-04-24T13:29:15.323Z,6.20
2019-04-24T13:31:51.158Z,6.20
2019-04-24T13:34:19.915Z,6.13
2019-04-24T13:36:58.099Z,5.53
2019-04-24T13:39:25.159Z,5.77
2019-04-24T13:42:04.828Z,5.80
2019-04-24T13:44:17.961Z,5.90
2019-04-24T13:46:50.688Z,5.53
2019-04-24T13:49:34.360Z,5.80
2019-04-24T13:52:04.313Z,4.97
2019-04-24T13:56:54.547Z,5.90
2019-04-24T13:59:21.491Z,5.53
2019-04-24T14:04:22.481Z,6.20
2019-04-24T14:07:04.301Z,5.67
2019-04-24T14:10:04.682Z,5.20
2019-04-24T14:12:55.939Z,5.40
2019-04-24T14:14:55.982Z,5.17
2019-04-24T14:16:55.028Z,5.10
2019-04-24T14:19:51.958Z,5.20
2019-04-24T14:22:13.629Z,4.93
2019-04-24T14:25:00.068Z,4.90
2019-04-24T14:27:17.229Z,5.10
2019-04-24T14:29:51.961Z,5.07
2019-04-24T14:32:15.008Z,4.80
2019-04-24T14:34:57.856Z,5.03
2019-04-24T14:39:59.156Z,5.00
2019-04-24T14:47:32.571Z,4.80
2019-04-24T14:50:16.121Z,4.70
2019-04-24T14:52:34.822Z,4.90
2019-04-24T14:57:38.862Z,4.30
2019-04-24T15:00:20.558Z,4.27
2019-04-24T15:02:45.248Z,4.00
2019-04-24T15:05:16.431Z,4.47
2019-04-24T15:07:46.062Z,4.43
2019-04-24T15:12:46.904Z,3.93
2019-04-24T15:15:13.768Z,4.33
2019-04-24T15:18:02.438Z,4.40
2019-04-24T15:20:18.481Z,4.63
2019-04-24T15:23:05.972Z,4.40
2019-04-24T15:25:36.854Z,4.23
2019-04-24T15:28:04.272Z,4.13
2019-04-24T15:30:23.912Z,3.97
2019-04-24T15:32:56.779Z,4.30
2019-04-24T15:35:29.710Z,3.80
2019-04-24T15:37:58.424Z,3.67
2019-04-24T15:40:41.620Z,3.90
2019-04-24T15:43:18.501Z,3.73
2019-04-24T15:45:24.456Z,3.90
2019-04-24T15:50:31.110Z,3.60
2019-04-24T15:52:31.413Z,3.37
2019-04-24T15:55:00.337Z,3.63
2019-04-24T15:57:29.700Z,3.47
2019-04-24T16:00:29.521Z,3.30
2019-04-24T16:03:07.485Z,3.53
2019-04-24T16:04:59.698Z,3.30
2019-04-24T16:07:47.548Z,3.60
2019-04-24T16:10:21.492Z,3.23
2019-04-24T16:12:50.217Z,3.30
2019-04-24T16:18:19.220Z,3.00
2019-04-24T16:23:34.615Z,2.97
2019-04-24T16:25:52.305Z,3.03
2019-04-24T16:30:58.135Z,3.20
2019-04-24T16:33:25.545Z,2.90
2019-04-24T16:36:04.071Z,3.07
2019-04-24T16:38:33.708Z,3.23
2019-04-24T16:40:59.840Z,2.83
2019-04-24T16:43:52.012Z,3.00
2019-04-24T16:53:50.000Z,3.40
2019-04-24T16:56:30.653Z,3.60
2019-04-24T16:58:51.650Z,3.40
2019-04-24T17:04:19.954Z,2.70
2019-04-24T17:06:27.863Z,3.83
2019-04-24T17:14:22.857Z,3.47
2019-04-24T17:20:03.038Z,3.10
2019-04-24T17:32:26.986Z,2.77
2019-04-24T17:35:18.068Z,2.70
2019-04-24T17:37:04.121Z,2.80
2019-04-24T17:39:41.603Z,2.80
2019-04-24T17:42:24.648Z,3.17
2019-04-24T17:45:13.607Z,2.63
2019-04-24T17:47:46.253Z,2.60
2019-04-24T17:50:19.861Z,2.60
2019-04-24T17:55:11.006Z,2.60
2019-04-24T17:59:46.512Z,2.60
2019-04-24T18:02:18.356Z,2.47
2019-04-24T18:04:47.131Z,2.70
2019-04-24T18:07:16.048Z,2.63
2019-04-24T18:09:44.826Z,2.63
2019-04-24T18:12:14.005Z,2.43
2019-04-24T18:14:42.820Z,2.27
2019-04-24T18:17:12.982Z,3.00
2019-04-24T18:19:42.217Z,2.70
2019-04-24T18:22:12.629Z,2.60
2019-04-24T18:25:10.018Z,2.87
2019-04-24T18:27:39.376Z,2.70
2019-04-24T18:30:09.336Z,3.07
2019-04-24T18:32:38.254Z,3.50
2019-04-24T18:35:07.620Z,3.73
2019-04-24T18:37:36.593Z,2.77
2019-04-24T18:40:06.926Z,3.07
2019-04-24T18:42:35.739Z,2.60
2019-04-24T18:45:04.748Z,2.43
2019-04-24T18:47:33.618Z,2.90
2019-04-24T18:50:02.532Z,2.80
2019-04-24T18:52:31.304Z,2.57
2019-04-24T18:55:00.065Z,2.30
2019-04-24T18:57:28.938Z,2.57
2019-04-24T18:59:57.784Z,2.30
2019-04-24T19:02:26.529Z,2.40
2019-04-24T19:04:55.445Z,2.13
2019-04-24T19:07:24.272Z,2.67
2019-04-24T19:09:53.327Z,2.47
2019-04-24T19:12:22.330Z,2.30
2019-04-24T19:14:52.075Z,1.87
2019-04-24T19:17:21.284Z,2.40
2019-04-24T19:19:50.168Z,2.10
2019-04-24T19:22:19.104Z,2.03
2019-04-24T19:24:48.105Z,2.23
2019-04-24T19:27:17.466Z,1.93
2019-04-24T19:29:46.314Z,2.03
2019-04-24T19:32:15.190Z,2.10
2019-04-24T19:34:44.091Z,2.50
2019-04-24T19:37:13.158Z,2.43
2019-04-24T19:39:42.183Z,1.80
2019-04-24T19:42:12.953Z,1.83
2019-04-24T19:44:41.543Z,1.80
2019-04-24T19:47:10.634Z,1.83
2019-04-24T19:49:40.391Z,2.00
2019-04-24T19:52:09.372Z,2.10
2019-04-24T19:54:38.189Z,1.80
2019-04-24T19:57:14.651Z,1.90
2019-04-24T19:59:37.506Z,2.10
2019-04-24T20:02:06.975Z,1.60
2019-04-24T20:04:35.844Z,1.83
2019-04-24T20:07:04.604Z,1.83
2019-04-24T20:09:51.169Z,1.67
2019-04-24T20:12:21.986Z,1.50
2019-04-24T20:14:51.020Z,1.87
2019-04-24T20:17:20.692Z,1.50
2019-04-24T20:19:51.601Z,2.10
2019-04-24T20:22:22.005Z,1.67
2019-04-24T20:24:52.456Z,1.87
2019-04-24T20:27:21.976Z,1.80
2019-04-24T20:29:51.120Z,1.70
2019-04-24T20:32:20.429Z,1.80
2019-04-24T20:34:51.787Z,1.63
2019-04-24T20:37:20.658Z,1.57
2019-04-24T20:39:49.499Z,1.70
2019-04-24T20:42:19.166Z,1.40
2019-04-24T20:44:48.218Z,1.70
2019-04-24T20:47:17.052Z,1.30
2019-04-24T20:49:45.907Z,1.50
2019-04-24T20:52:14.890Z,1.70
2019-04-24T20:54:43.714Z,1.60
2019-04-24T20:57:13.659Z,1.40
2019-04-24T20:59:42.578Z,1.40
2019-04-24T21:02:11.487Z,1.57
2019-04-24T21:04:40.348Z,1.30
2019-04-24T21:07:28.500Z,1.43
2019-04-24T21:10:02.107Z,1.40
2019-04-24T21:12:31.638Z,1.10
2019-04-24T21:15:11.352Z,1.60
2019-04-24T21:17:40.178Z,1.50
2019-04-24T21:20:09.135Z,1.43
2019-04-24T21:22:38.002Z,1.50
2019-04-24T21:25:06.918Z,1.10
2019-04-24T21:27:35.685Z,1.30
2019-04-24T21:30:04.968Z,1.30
2019-04-24T21:32:33.802Z,1.23
2019-04-24T21:35:02.726Z,1.33
2019-04-24T21:37:31.733Z,1.33
2019-04-24T21:40:01.835Z,1.30
2019-04-24T21:42:32.161Z,1.40
2019-04-24T21:45:01.750Z,1.10
2019-04-24T21:47:32.183Z,1.40
2019-04-24T21:50:01.600Z,1.20
2019-04-24T21:52:32.594Z,1.30
2019-04-24T21:55:01.369Z,1.10
2019-04-24T21:57:30.198Z,1.20
2019-04-24T21:59:59.117Z,1.20
2019-04-24T22:02:34.526Z,1.20
2019-04-24T22:05:25.550Z,1.20
2019-04-24T22:07:54.536Z,1.20
2019-04-24T22:10:24.240Z,1.20
2019-04-24T22:12:53.977Z,1.47
2019-04-24T22:15:22.850Z,1.20
2019-04-24T22:17:53.782Z,1.40
2019-04-24T22:20:42.022Z,1.10
2019-04-24T22:23:17.786Z,1.30
2019-04-24T22:25:52.201Z,1.30
2019-04-24T22:28:21.722Z,1.00
2019-04-24T22:31:12.742Z,0.93
2019-04-24T22:33:46.876Z,1.00
2019-04-24T22:36:15.642Z,1.43
2019-04-24T22:38:52.957Z,1.13
2019-04-24T22:41:21.733Z,1.10
2019-04-24T22:43:52.009Z,1.07
2019-04-24T22:46:22.830Z,1.00
2019-04-24T22:48:53.348Z,1.00
2019-04-24T22:51:22.123Z,1.23
2019-04-24T22:53:51.019Z,1.17
2019-04-24T22:56:19.935Z,1.10
2019-04-24T22:58:48.707Z,1.13
2019-04-24T23:01:17.601Z,0.70
2019-04-24T23:03:46.779Z,1.20
2019-04-24T23:06:15.514Z,0.90
2019-04-24T23:08:44.264Z,1.20
2019-04-24T23:11:13.011Z,1.00
2019-04-24T23:13:43.139Z,1.10
2019-04-24T23:16:12.725Z,0.90
2019-04-24T23:18:42.764Z,0.90
2019-04-24T23:21:39.909Z,0.90
2019-04-24T23:24:15.480Z,1.00
2019-04-24T23:27:03.347Z,0.93
2019-04-24T23:29:42.696Z,0.93
2019-04-24T23:32:23.598Z,0.93
2019-04-24T23:34:52.429Z,0.90
2019-04-24T23:37:21.309Z,0.90
2019-04-24T23:39:50.107Z,0.80
2019-04-24T23:42:18.863Z,0.90
2019-04-24T23:44:47.723Z,1.10
2019-04-24T23:47:16.568Z,0.80
2019-04-24T23:49:45.379Z,1.10
2019-04-24T23:52:14.355Z,0.93
2019-04-24T23:54:53.901Z,0.80
2019-04-24T23:57:13.769Z,0.90
2019-04-24T23:59:44.855Z,1.00
